createdAt,value
2023-04-19T00:01:30.940Z,72.70
2023-04-19T00:03:58.435Z,72.20
2023-04-19T00:06:26.072Z,72.20
2023-04-19T00:08:52.907Z,72.20
2023-04-19T00:11:19.987Z,72.00
2023-04-19T00:13:46.788Z,72.00
2023-04-19T00:16:13.695Z,71.80
2023-04-19T00:18:40.666Z,71.90
2023-04-19T00:21:07.601Z,71.90
2023-04-19T00:23:34.951Z,71.90
2023-04-19T00:26:05.205Z,72.10
2023-04-19T00:28:33.443Z,72.20
2023-04-19T00:31:00.402Z,72.30
2023-04-19T00:33:27.583Z,72.20
2023-04-19T00:35:57.374Z,72.10
2023-04-19T00:38:24.645Z,72.30
2023-04-19T00:40:51.444Z,72.20
2023-04-19T00:43:21.496Z,71.90
2023-04-19T00:45:49.458Z,72.00
2023-04-19T00:48:16.730Z,72.40
2023-04-19T00:50:45.987Z,72.60
2023-04-19T00:53:13.058Z,72.40
2023-04-19T00:55:40.238Z,72.40
2023-04-19T00:58:08.658Z,72.50
2023-04-19T01:00:36.940Z,72.50
2023-04-19T01:03:04.228Z,72.60
2023-04-19T01:05:31.384Z,72.40
2023-04-19T01:07:58.406Z,72.70
2023-04-19T01:10:25.628Z,72.60
2023-04-19T01:12:52.482Z,72.40
2023-04-19T01:15:19.499Z,72.40
2023-04-19T01:17:49.637Z,72.40
2023-04-19T01:20:16.678Z,72.70
2023-04-19T01:22:43.671Z,72.70
2023-04-19T01:25:11.285Z,72.60
2023-04-19T01:27:38.693Z,72.50
2023-04-19T01:30:06.437Z,72.40
2023-04-19T01:32:33.321Z,72.70
2023-04-19T01:35:00.304Z,72.60
2023-04-19T01:37:30.487Z,72.10
2023-04-19T01:39:57.321Z,72.10
2023-04-19T01:42:24.181Z,72.00
2023-04-19T01:44:50.985Z,72.00
2023-04-19T01:47:17.785Z,72.40
2023-04-19T01:49:44.662Z,72.50
2023-04-19T01:52:11.567Z,72.90
2023-04-19T01:54:38.430Z,73.10
2023-04-19T01:57:05.320Z,73.50
2023-04-19T01:59:32.327Z,73.50
2023-04-19T02:01:59.255Z,73.50
2023-04-19T02:04:26.459Z,73.50
2023-04-19T02:06:53.439Z,73.70
2023-04-19T02:09:20.308Z,73.60
2023-04-19T02:11:47.175Z,73.80
2023-04-19T02:14:14.326Z,73.80
2023-04-19T02:16:41.851Z,73.80
2023-04-19T02:22:11.110Z,73.60
2023-04-19T02:24:39.604Z,73.70
2023-04-19T02:27:06.468Z,73.60
2023-04-19T02:29:33.955Z,73.50
2023-04-19T02:32:00.871Z,73.60
2023-04-19T02:34:28.252Z,73.50
2023-04-19T02:36:55.187Z,73.70
2023-04-19T02:39:22.106Z,73.80
2023-04-19T02:41:49.435Z,73.80
2023-04-19T02:44:16.666Z,74.40
2023-04-19T02:46:51.061Z,73.60
2023-04-19T02:49:19.456Z,73.70
2023-04-19T02:51:46.581Z,73.30
2023-04-19T02:54:14.828Z,73.20
2023-04-19T02:56:44.375Z,73.40
2023-04-19T02:59:11.551Z,73.30
2023-04-19T03:01:38.637Z,73.20
2023-04-19T03:04:07.343Z,73.50
2023-04-19T03:06:34.404Z,73.40
2023-04-19T03:09:02.158Z,73.40
2023-04-19T03:11:29.128Z,73.60
2023-04-19T03:13:56.171Z,74.00
2023-04-19T03:16:23.135Z,73.90
2023-04-19T03:18:50.443Z,74.50
2023-04-19T03:21:21.527Z,74.50
2023-04-19T03:23:54.405Z,74.30
2023-04-19T03:26:21.926Z,74.00
2023-04-19T03:28:52.778Z,74.00
2023-04-19T03:31:26.742Z,74.10
2023-04-19T03:33:54.294Z,74.10
2023-04-19T03:36:27.135Z,74.20
2023-04-19T03:38:54.134Z,74.20
2023-04-19T03:41:27.156Z,74.10
2023-04-19T03:44:14.584Z,74.10
2023-04-19T03:46:46.596Z,73.90
2023-04-19T03:49:16.148Z,73.80
2023-04-19T03:51:46.325Z,74.00
2023-04-19T03:54:13.322Z,74.20
2023-04-19T03:56:40.314Z,74.40
2023-04-19T03:59:07.771Z,74.20
2023-04-19T04:01:41.963Z,74.30
2023-04-19T04:04:09.656Z,74.20
2023-04-19T04:06:36.783Z,74.20
2023-04-19T04:09:04.198Z,74.30
2023-04-19T04:11:31.381Z,74.60
2023-04-19T04:13:58.578Z,74.70
2023-04-19T04:16:32.153Z,74.60
2023-04-19T04:18:59.645Z,74.40
2023-04-19T04:21:28.400Z,74.70
2023-04-19T04:23:58.723Z,74.70
2023-04-19T04:26:39.374Z,75.70
2023-04-19T04:29:18.024Z,75.00
2023-04-19T04:31:45.630Z,74.90
2023-04-19T04:34:15.214Z,75.00
2023-04-19T04:36:50.692Z,75.10
2023-04-19T04:39:19.449Z,75.30
2023-04-19T04:41:47.932Z,75.40
2023-04-19T04:44:15.516Z,75.30
2023-04-19T04:46:44.702Z,74.90
2023-04-19T04:49:15.198Z,74.70
2023-04-19T04:51:43.027Z,74.70
2023-04-19T04:54:10.513Z,74.90
2023-04-19T04:56:37.642Z,74.90
2023-04-19T04:59:05.737Z,75.00
2023-04-19T05:01:37.106Z,75.00
2023-04-19T05:04:04.781Z,75.30
2023-04-19T05:06:33.054Z,75.40
2023-04-19T05:08:59.938Z,75.50
2023-04-19T05:11:32.594Z,75.40
2023-04-19T05:13:59.553Z,75.40
2023-04-19T05:16:27.397Z,75.30
2023-04-19T05:18:55.420Z,75.40
2023-04-19T05:21:23.377Z,75.50
2023-04-19T05:23:53.472Z,75.70
2023-04-19T05:26:21.579Z,75.80
2023-04-19T05:28:50.641Z,76.30
2023-04-19T05:31:35.855Z,75.90
2023-04-19T05:34:15.702Z,75.80
2023-04-19T05:36:43.095Z,75.50
2023-04-19T05:39:10.075Z,75.50
2023-04-19T05:41:36.983Z,75.60
2023-04-19T05:44:04.022Z,75.80
2023-04-19T05:46:32.459Z,75.80
2023-04-19T05:48:59.955Z,75.80
2023-04-19T05:51:28.321Z,75.60
2023-04-19T05:54:12.514Z,75.50
2023-04-19T05:56:40.822Z,75.40
2023-04-19T05:59:08.464Z,75.20
2023-04-19T06:01:35.496Z,75.00
2023-04-19T06:04:02.924Z,74.80
2023-04-19T06:06:30.016Z,74.70
2023-04-19T06:08:57.048Z,74.90
2023-04-19T06:11:31.276Z,74.80
2023-04-19T06:14:02.565Z,74.60
2023-04-19T06:16:29.865Z,74.30
2023-04-19T06:18:57.315Z,74.20
2023-04-19T06:21:24.317Z,74.00
2023-04-19T06:23:51.324Z,73.80
2023-04-19T06:26:18.195Z,74.10
2023-04-19T06:28:45.060Z,73.30
2023-04-19T06:31:12.364Z,72.90
2023-04-19T06:33:39.512Z,72.00
2023-04-19T06:36:06.655Z,72.20
2023-04-19T06:38:33.555Z,72.20
2023-04-19T06:41:00.502Z,72.00
2023-04-19T06:43:27.504Z,71.80
2023-04-19T06:46:01.231Z,71.70
2023-04-19T06:48:28.390Z,71.60
2023-04-19T06:50:55.637Z,71.70
2023-04-19T06:53:23.532Z,71.80
2023-04-19T06:56:06.470Z,71.40
2023-04-19T06:58:35.118Z,72.40
2023-04-19T07:01:04.584Z,71.50
2023-04-19T07:03:31.896Z,71.40
2023-04-19T07:05:59.028Z,71.20
2023-04-19T07:08:34.943Z,71.10
2023-04-19T07:11:09.753Z,70.70
2023-04-19T07:13:36.707Z,70.10
2023-04-19T07:16:07.414Z,68.90
2023-04-19T07:18:34.438Z,68.80
2023-04-19T07:21:01.349Z,67.00
2023-04-19T07:23:28.184Z,66.90
2023-04-19T07:25:55.064Z,66.90
2023-04-19T07:28:21.953Z,66.60
2023-04-19T07:30:48.911Z,66.30
2023-04-19T07:33:16.048Z,65.50
2023-04-19T07:35:42.993Z,65.30
2023-04-19T07:38:09.812Z,65.20
2023-04-19T07:40:36.828Z,64.90
2023-04-19T07:43:03.644Z,64.60
2023-04-19T07:45:31.259Z,64.50
2023-04-19T07:47:58.496Z,63.80
2023-04-19T07:50:29.182Z,63.80
2023-04-19T07:52:56.740Z,62.70
2023-04-19T07:55:23.660Z,62.10
2023-04-19T07:57:50.936Z,62.50
2023-04-19T08:00:18.572Z,61.60
2023-04-19T08:02:46.592Z,61.50
2023-04-19T08:05:17.453Z,60.90
2023-04-19T08:07:45.736Z,60.50
2023-04-19T08:10:13.587Z,60.10
2023-04-19T08:12:47.681Z,60.30
2023-04-19T08:17:58.137Z,59.30
2023-04-19T08:20:25.422Z,58.80
2023-04-19T08:22:52.793Z,59.00
2023-04-19T08:25:19.815Z,58.60
2023-04-19T08:27:46.689Z,58.20
2023-04-19T08:30:13.827Z,58.20
2023-04-19T08:32:40.877Z,58.40
2023-04-19T08:35:08.409Z,58.60
2023-04-19T08:37:35.424Z,58.70
2023-04-19T08:40:04.252Z,57.80
2023-04-19T08:42:36.879Z,57.70
2023-04-19T08:47:44.839Z,56.80
2023-04-19T08:50:28.915Z,56.90
2023-04-19T08:53:12.321Z,56.60
2023-04-19T08:56:06.804Z,56.50
2023-04-19T09:01:06.866Z,56.60
2023-04-19T09:03:43.897Z,56.20
2023-04-19T09:06:14.578Z,55.90
2023-04-19T09:08:41.937Z,55.80
2023-04-19T09:11:09.216Z,55.30
2023-04-19T09:13:40.688Z,55.10
2023-04-19T09:16:22.758Z,55.30
2023-04-19T09:19:11.515Z,55.50
2023-04-19T09:21:42.873Z,54.60
2023-04-19T09:24:10.388Z,54.20
2023-04-19T09:26:38.105Z,54.00
2023-04-19T09:29:06.714Z,54.10
2023-04-19T09:31:50.936Z,53.90
2023-04-19T09:34:19.584Z,53.70
2023-04-19T09:36:46.873Z,53.80
2023-04-19T09:39:14.779Z,54.00
2023-04-19T09:41:54.980Z,54.00
2023-04-19T09:45:01.764Z,52.80
2023-04-19T09:47:30.063Z,52.50
2023-04-19T09:50:21.760Z,52.40
2023-04-19T09:52:50.274Z,52.00
2023-04-19T09:57:48.795Z,51.40
2023-04-19T10:00:16.156Z,51.30
2023-04-19T10:02:45.198Z,50.90
2023-04-19T10:05:21.391Z,50.70
2023-04-19T10:07:50.382Z,50.20
2023-04-19T10:10:23.959Z,49.90
2023-04-19T10:13:11.496Z,49.70
2023-04-19T10:15:52.705Z,49.60
2023-04-19T10:18:24.777Z,49.20
2023-04-19T10:21:07.756Z,48.60
2023-04-19T10:23:35.561Z,48.50
2023-04-19T10:26:02.404Z,48.00
2023-04-19T10:28:30.892Z,47.80
2023-04-19T10:31:03.638Z,47.10
2023-04-19T10:33:41.190Z,47.00
2023-04-19T10:36:14.622Z,46.90
2023-04-19T10:38:48.090Z,46.60
2023-04-19T10:41:17.762Z,46.60
2023-04-19T10:44:07.725Z,46.60
2023-04-19T10:46:36.039Z,46.20
2023-04-19T10:49:05.234Z,45.70
2023-04-19T10:51:38.683Z,44.90
2023-04-19T10:54:08.543Z,45.40
2023-04-19T10:56:41.124Z,45.20
2023-04-19T10:59:08.457Z,45.10
2023-04-19T11:01:43.378Z,45.10
2023-04-19T11:04:12.914Z,45.30
2023-04-19T11:06:55.060Z,45.20
2023-04-19T11:09:36.801Z,45.00
2023-04-19T11:12:08.556Z,45.10
2023-04-19T11:14:57.452Z,45.50
2023-04-19T11:17:31.224Z,45.60
2023-04-19T11:20:07.009Z,46.20
2023-04-19T11:22:33.926Z,45.80
2023-04-19T11:25:21.241Z,44.40
2023-04-19T11:27:50.810Z,44.70
2023-04-19T11:30:21.452Z,44.70
2023-04-19T11:32:50.433Z,44.10
2023-04-19T11:35:22.515Z,44.20
2023-04-19T11:37:49.642Z,44.00
2023-04-19T11:40:18.101Z,44.70
2023-04-19T11:42:46.018Z,45.60
2023-04-19T11:45:30.461Z,46.30
2023-04-19T11:47:58.747Z,46.10
2023-04-19T11:50:31.773Z,46.10
2023-04-19T11:52:59.740Z,46.00
2023-04-19T11:55:32.925Z,46.30
2023-04-19T11:57:59.778Z,46.80
2023-04-19T12:00:30.726Z,46.90
2023-04-19T12:02:59.696Z,46.20
2023-04-19T12:05:27.040Z,46.00
2023-04-19T12:08:03.199Z,46.20
2023-04-19T12:10:31.284Z,46.00
2023-04-19T12:12:58.457Z,45.50
2023-04-19T12:15:44.475Z,45.60
2023-04-19T12:18:11.533Z,45.30
2023-04-19T12:20:43.823Z,45.00
2023-04-19T12:23:16.743Z,45.60
2023-04-19T12:25:47.031Z,45.20
2023-04-19T12:28:15.424Z,45.10
2023-04-19T12:30:42.973Z,44.40
2023-04-19T12:33:10.243Z,43.90
2023-04-19T12:35:38.584Z,43.20
2023-04-19T12:38:05.779Z,43.70
2023-04-19T12:40:33.156Z,43.60
2023-04-19T12:43:00.189Z,43.60
2023-04-19T12:45:27.520Z,43.50
2023-04-19T12:47:54.678Z,43.40
2023-04-19T12:50:21.771Z,43.10
2023-04-19T12:52:48.640Z,43.10
2023-04-19T12:55:21.761Z,42.70
2023-04-19T12:57:53.321Z,42.60
2023-04-19T13:00:20.522Z,42.70
2023-04-19T13:02:48.515Z,43.10
2023-04-19T13:05:16.067Z,43.20
2023-04-19T13:07:43.152Z,42.90
2023-04-19T13:10:10.390Z,43.10
2023-04-19T13:12:37.420Z,43.30
2023-04-19T13:15:05.139Z,43.10
2023-04-19T13:17:32.261Z,43.40
2023-04-19T13:19:59.294Z,43.90
2023-04-19T13:22:26.743Z,44.00
2023-04-19T13:24:53.573Z,43.80
2023-04-19T13:27:21.009Z,44.20
2023-04-19T13:29:47.906Z,44.50
2023-04-19T13:32:14.879Z,44.60
2023-04-19T13:34:47.885Z,45.10
2023-04-19T13:37:15.349Z,45.80
2023-04-19T13:39:43.344Z,46.20
2023-04-19T13:42:12.962Z,46.10
2023-04-19T13:44:42.589Z,45.40
2023-04-19T13:47:09.561Z,45.00
2023-04-19T13:49:44.591Z,44.80
2023-04-19T13:52:11.733Z,43.90
2023-04-19T13:54:38.647Z,43.00
2023-04-19T13:57:05.847Z,42.60
2023-04-19T13:59:32.769Z,41.60
2023-04-19T14:01:59.983Z,41.00
2023-04-19T14:04:27.295Z,40.30
2023-04-19T14:06:54.349Z,39.80
2023-04-19T14:09:21.243Z,39.50
2023-04-19T14:11:49.346Z,39.20
2023-04-19T14:14:16.516Z,39.20
2023-04-19T14:16:44.728Z,39.20
2023-04-19T14:19:11.690Z,38.50
2023-04-19T14:21:38.685Z,38.00
2023-04-19T14:24:06.024Z,37.70
2023-04-19T14:26:33.015Z,37.60
2023-04-19T14:28:59.966Z,37.70
2023-04-19T14:31:26.901Z,37.60
2023-04-19T14:33:53.844Z,37.70
2023-04-19T14:36:20.736Z,37.90
2023-04-19T14:38:47.679Z,38.50
2023-04-19T14:41:14.500Z,38.90
2023-04-19T14:43:41.757Z,39.40
2023-04-19T14:46:09.167Z,40.50
2023-04-19T14:48:36.248Z,40.30
2023-04-19T14:51:03.349Z,40.90
2023-04-19T14:53:31.410Z,41.00
2023-04-19T14:55:59.628Z,41.90
2023-04-19T14:58:26.567Z,40.80
2023-04-19T15:00:54.736Z,40.40
2023-04-19T15:03:21.847Z,39.10
2023-04-19T15:05:48.993Z,39.20
2023-04-19T15:08:29.047Z,39.50
2023-04-19T15:10:56.914Z,39.60
2023-04-19T15:13:23.806Z,38.50
2023-04-19T15:15:51.267Z,38.10
2023-04-19T15:18:18.162Z,38.20
2023-04-19T15:20:45.057Z,38.80
2023-04-19T15:23:11.931Z,39.60
2023-04-19T15:25:38.879Z,40.20
2023-04-19T15:28:05.715Z,40.30
2023-04-19T15:30:32.582Z,40.20
2023-04-19T15:32:59.433Z,40.60
2023-04-19T15:35:26.315Z,40.80
2023-04-19T15:37:53.145Z,41.20
2023-04-19T15:40:20.273Z,42.00
2023-04-19T15:42:47.130Z,42.60
2023-04-19T15:45:14.001Z,43.00
2023-04-19T15:47:41.123Z,42.50
2023-04-19T15:50:08.920Z,42.10
2023-04-19T15:52:36.553Z,42.70
2023-04-19T15:55:03.595Z,43.40
2023-04-19T15:57:30.413Z,43.90
2023-04-19T15:59:57.301Z,44.10
2023-04-19T16:02:24.430Z,44.50
2023-04-19T16:04:51.528Z,44.30
2023-04-19T16:07:18.427Z,44.20
2023-04-19T16:09:46.882Z,44.40
2023-04-19T16:12:13.809Z,44.70
2023-04-19T16:14:40.896Z,45.00
2023-04-19T16:17:07.896Z,45.10
2023-04-19T16:19:34.827Z,45.10
2023-04-19T16:22:05.429Z,45.00
2023-04-19T16:24:32.338Z,44.90
2023-04-19T16:26:59.263Z,44.80
2023-04-19T16:29:26.523Z,44.80
2023-04-19T16:31:53.447Z,45.70
2023-04-19T16:34:21.278Z,45.50
2023-04-19T16:36:48.153Z,45.50
2023-04-19T16:39:15.393Z,45.30
2023-04-19T16:41:43.869Z,45.70
2023-04-19T16:44:11.520Z,45.60
2023-04-19T16:46:38.486Z,45.70
2023-04-19T16:49:05.452Z,46.60
2023-04-19T16:51:32.739Z,45.50
2023-04-19T16:53:59.774Z,45.50
2023-04-19T16:56:26.857Z,45.60
2023-04-19T16:58:56.493Z,45.60
2023-04-19T17:01:23.687Z,45.70
2023-04-19T17:03:51.196Z,45.80
2023-04-19T17:06:18.252Z,46.20
2023-04-19T17:08:45.268Z,46.50
2023-04-19T17:11:12.154Z,46.50
2023-04-19T17:13:39.774Z,47.20
2023-04-19T17:16:07.393Z,48.20
2023-04-19T17:18:34.408Z,48.80
2023-04-19T17:21:01.379Z,49.70
2023-04-19T17:23:28.318Z,50.40
2023-04-19T17:25:55.165Z,51.10
2023-04-19T17:28:22.262Z,51.50
2023-04-19T17:30:49.241Z,52.10
2023-04-19T17:33:16.263Z,52.30
2023-04-19T17:35:43.112Z,52.50
2023-04-19T17:38:11.601Z,53.10
2023-04-19T17:40:38.549Z,53.20
2023-04-19T17:43:05.951Z,53.40
2023-04-19T17:45:32.931Z,53.70
2023-04-19T17:48:00.004Z,54.00
2023-04-19T17:50:27.056Z,54.20
2023-04-19T17:52:55.288Z,54.10
2023-04-19T17:55:22.392Z,54.50
2023-04-19T17:57:49.255Z,54.60
2023-04-19T18:00:16.449Z,54.90
2023-04-19T18:02:43.674Z,55.10
2023-04-19T18:05:13.465Z,55.00
2023-04-19T18:07:40.466Z,55.00
2023-04-19T18:10:07.813Z,55.00
2023-04-19T18:12:34.921Z,55.00
2023-04-19T18:15:01.990Z,54.90
2023-04-19T18:17:28.944Z,55.60
2023-04-19T18:19:55.972Z,55.70
2023-04-19T18:22:23.018Z,55.70
2023-04-19T18:24:51.447Z,55.60
2023-04-19T18:27:18.315Z,55.50
2023-04-19T18:29:45.339Z,55.40
2023-04-19T18:32:12.257Z,55.60
2023-04-19T18:34:39.239Z,55.60
2023-04-19T18:37:17.248Z,55.50
2023-04-19T18:39:44.416Z,55.60
2023-04-19T18:42:11.655Z,55.70
2023-04-19T18:44:52.867Z,56.00
2023-04-19T18:47:22.241Z,56.50
2023-04-19T18:50:03.430Z,56.60
2023-04-19T18:52:33.456Z,56.60
2023-04-19T18:55:00.858Z,56.80
2023-04-19T18:57:28.220Z,56.70
2023-04-19T18:59:56.504Z,56.70
2023-04-19T19:02:23.723Z,57.00
2023-04-19T19:04:56.991Z,57.10
2023-04-19T19:09:56.711Z,57.10
2023-04-19T19:12:24.177Z,57.00
2023-04-19T19:14:51.941Z,56.90
2023-04-19T19:17:18.983Z,56.90
2023-04-19T19:19:45.979Z,57.30
2023-04-19T19:22:23.071Z,57.70
2023-04-19T19:24:54.441Z,58.00
2023-04-19T19:27:21.501Z,58.20
2023-04-19T19:29:48.494Z,58.30
2023-04-19T19:32:15.522Z,58.10
2023-04-19T19:34:53.858Z,58.50
2023-04-19T19:37:22.265Z,58.50
2023-04-19T19:39:49.699Z,59.10
2023-04-19T19:42:17.497Z,59.40
2023-04-19T19:44:44.759Z,59.90
2023-04-19T19:47:12.821Z,60.20
2023-04-19T19:52:09.620Z,61.30
2023-04-19T19:54:36.699Z,61.70
2023-04-19T19:59:34.643Z,61.90
2023-04-19T20:02:03.811Z,61.90
2023-04-19T20:04:32.300Z,62.20
2023-04-19T20:09:29.206Z,62.90
2023-04-19T20:11:56.360Z,63.00
2023-04-19T20:14:24.334Z,62.80
2023-04-19T20:16:52.508Z,62.90
2023-04-19T20:19:19.627Z,62.50
2023-04-19T20:21:49.406Z,62.30
2023-04-19T20:24:17.770Z,62.30
2023-04-19T20:26:44.706Z,62.30
2023-04-19T20:29:11.852Z,62.50
2023-04-19T20:31:38.902Z,62.60
2023-04-19T20:34:05.846Z,62.50
2023-04-19T20:36:33.255Z,62.70
2023-04-19T20:39:01.930Z,62.80
2023-04-19T20:41:28.923Z,63.00
2023-04-19T20:43:57.109Z,62.50
2023-04-19T20:46:24.269Z,62.50
2023-04-19T20:48:51.195Z,62.60
2023-04-19T20:51:18.317Z,62.70
2023-04-19T20:53:45.223Z,62.80
2023-04-19T20:56:12.272Z,62.60
2023-04-19T20:58:40.501Z,62.50
2023-04-19T21:01:07.485Z,62.40
2023-04-19T21:03:34.685Z,62.30
2023-04-19T21:06:01.652Z,62.30
2023-04-19T21:08:28.709Z,62.30
2023-04-19T21:10:55.805Z,62.60
2023-04-19T21:13:22.801Z,62.60
2023-04-19T21:15:49.617Z,62.80
2023-04-19T21:18:17.441Z,62.90
2023-04-19T21:20:44.349Z,63.00
2023-04-19T21:23:11.322Z,63.20
2023-04-19T21:25:38.183Z,62.10
2023-04-19T21:28:05.193Z,60.80
2023-04-19T21:30:32.276Z,60.20
2023-04-19T21:32:59.118Z,59.60
2023-04-19T21:35:26.176Z,59.70
2023-04-19T21:37:53.067Z,59.30
2023-04-19T21:40:20.058Z,59.30
2023-04-19T21:42:46.924Z,60.30
2023-04-19T21:45:13.912Z,61.00
2023-04-19T21:47:42.086Z,61.40
2023-04-19T21:50:09.922Z,61.60
2023-04-19T21:52:36.804Z,61.70
2023-04-19T21:55:04.085Z,62.10
2023-04-19T21:57:31.792Z,62.40
2023-04-19T21:59:58.700Z,63.10
2023-04-19T22:02:25.715Z,63.60
2023-04-19T22:04:53.873Z,63.80
2023-04-19T22:07:23.985Z,64.00
2023-04-19T22:09:51.041Z,64.40
2023-04-19T22:12:18.871Z,64.50
2023-04-19T22:14:45.950Z,64.70
2023-04-19T22:17:12.878Z,64.40
2023-04-19T22:19:39.924Z,65.00
2023-04-19T22:22:06.907Z,65.10
2023-04-19T22:24:35.835Z,65.00
2023-04-19T22:27:04.373Z,65.20
2023-04-19T22:29:32.406Z,65.20
2023-04-19T22:31:59.402Z,64.30
2023-04-19T22:34:26.343Z,63.60
2023-04-19T22:36:53.305Z,63.20
2023-04-19T22:39:20.622Z,63.30
2023-04-19T22:41:47.586Z,63.20
2023-04-19T22:44:14.563Z,62.80
2023-04-19T22:46:41.460Z,62.90
2023-04-19T22:49:10.100Z,62.90
2023-04-19T22:51:38.317Z,62.80
2023-04-19T22:54:05.322Z,63.20
2023-04-19T22:56:32.169Z,63.60
2023-04-19T22:58:59.751Z,63.80
2023-04-19T23:01:26.666Z,63.70
2023-04-19T23:03:53.689Z,63.70
2023-04-19T23:06:20.589Z,63.80
2023-04-19T23:08:47.506Z,64.00
2023-04-19T23:11:14.330Z,64.10
2023-04-19T23:13:41.406Z,64.10
2023-04-19T23:16:12.042Z,64.30
2023-04-19T23:18:40.153Z,64.30
2023-04-19T23:21:07.090Z,64.20
2023-04-19T23:23:33.987Z,64.00
2023-04-19T23:26:00.963Z,64.00
2023-04-19T23:28:28.077Z,63.60
2023-04-19T23:30:55.074Z,63.60
2023-04-19T23:33:21.974Z,63.30
2023-04-19T23:35:48.974Z,63.40
2023-04-19T23:38:15.989Z,63.40
2023-04-19T23:40:42.942Z,63.60
2023-04-19T23:43:09.871Z,63.30
2023-04-19T23:45:36.825Z,63.60
2023-04-19T23:48:04.025Z,63.00
2023-04-19T23:50:31.075Z,62.80
2023-04-19T23:52:58.187Z,62.60
2023-04-19T23:55:25.498Z,62.60
2023-04-19T23:57:52.412Z,62.60
